sensor_id;sensor_type;location;lat;lon;timestamp;temperature;humidity
3792;DHT22;1911;53.768;11.474;2023-07-02T00:00:27;15.70;99.90
3792;DHT22;1911;53.768;11.474;2023-07-02T00:02:52;15.70;99.90
3792;DHT22;1911;53.768;11.474;2023-07-02T00:05:18;15.70;99.90
3792;DHT22;1911;53.768;11.474;2023-07-02T00:07:43;15.70;99.90
3792;DHT22;1911;53.768;11.474;2023-07-02T00:10:09;15.70;99.90
3792;DHT22;1911;53.768;11.474;2023-07-02T00:12:36;15.60;99.90
3792;DHT22;1911;53.768;11.474;2023-07-02T00:15:02;15.60;99.90
3792;DHT22;1911;53.768;11.474;2023-07-02T00:17:28;15.60;99.90
3792;DHT22;1911;53.768;11.474;2023-07-02T00:19:54;15.50;99.90
3792;DHT22;1911;53.768;11.474;2023-07-02T00:22:20;15.50;99.90
3792;DHT22;1911;53.768;11.474;2023-07-02T00:24:46;15.50;99.90
3792;DHT22;1911;53.768;11.474;2023-07-02T00:27:12;15.40;99.90
3792;DHT22;1911;53.768;11.474;2023-07-02T00:29:37;15.30;99.90
3792;DHT22;1911;53.768;11.474;2023-07-02T00:32:03;15.30;99.90
3792;DHT22;1911;53.768;11.474;2023-07-02T00:34:29;15.30;99.90
3792;DHT22;1911;53.768;11.474;2023-07-02T00:36:55;15.20;99.90
3792;DHT22;1911;53.768;11.474;2023-07-02T00:39:20;15.10;99.90
3792;DHT22;1911;53.768;11.474;2023-07-02T00:41:46;15.00;99.90
3792;DHT22;1911;53.768;11.474;2023-07-02T00:44:12;15.00;99.90
3792;DHT22;1911;53.768;11.474;2023-07-02T00:46:38;15.00;99.90
3792;DHT22;1911;53.768;11.474;2023-07-02T00:49:04;15.00;99.90
3792;DHT22;1911;53.768;11.474;2023-07-02T00:51:30;15.00;99.90
3792;DHT22;1911;53.768;11.474;2023-07-02T00:53:57;15.00;99.90
3792;DHT22;1911;53.768;11.474;2023-07-02T00:56:25;14.90;99.90
3792;DHT22;1911;53.768;11.474;2023-07-02T00:58:52;14.90;99.90
3792;DHT22;1911;53.768;11.474;2023-07-02T01:01:20;14.90;99.90
3792;DHT22;1911;53.768;11.474;2023-07-02T01:06:20;14.90;99.90
3792;DHT22;1911;53.768;11.474;2023-07-02T01:08:51;14.90;99.90
3792;DHT22;1911;53.768;11.474;2023-07-02T01:11:17;14.90;99.90
3792;DHT22;1911;53.768;11.474;2023-07-02T01:13:43;14.90;99.90
3792;DHT22;1911;53.768;11.474;2023-07-02T01:16:10;14.90;99.90
3792;DHT22;1911;53.768;11.474;2023-07-02T01:18:36;14.90;99.90
3792;DHT22;1911;53.768;11.474;2023-07-02T01:21:05;14.90;99.90
3792;DHT22;1911;53.768;11.474;2023-07-02T01:23:33;14.80;99.90
3792;DHT22;1911;53.768;11.474;2023-07-02T01:25:58;14.80;99.90
3792;DHT22;1911;53.768;11.474;2023-07-02T01:28:25;14.70;99.90
3792;DHT22;1911;53.768;11.474;2023-07-02T01:30:51;14.70;99.90
3792;DHT22;1911;53.768;11.474;2023-07-02T01:33:17;14.60;99.90
3792;DHT22;1911;53.768;11.474;2023-07-02T01:35:42;14.60;99.90
3792;DHT22;1911;53.768;11.474;2023-07-02T01:38:08;14.60;99.90
3792;DHT22;1911;53.768;11.474;2023-07-02T01:40:34;14.50;99.90
3792;DHT22;1911;53.768;11.474;2023-07-02T01:42:59;14.60;99.90
3792;DHT22;1911;53.768;11.474;2023-07-02T01:45:25;14.60;99.90
3792;DHT22;1911;53.768;11.474;2023-07-02T01:47:50;14.60;99.90
3792;DHT22;1911;53.768;11.474;2023-07-02T01:50:16;14.60;99.90
3792;DHT22;1911;53.768;11.474;2023-07-02T01:52:42;14.50;99.90
3792;DHT22;1911;53.768;11.474;2023-07-02T01:55:08;14.60;99.90
3792;DHT22;1911;53.768;11.474;2023-07-02T01:57:34;14.60;99.90
3792;DHT22;1911;53.768;11.474;2023-07-02T01:59:59;14.60;99.90
3792;DHT22;1911;53.768;11.474;2023-07-02T02:02:25;14.60;99.90
3792;DHT22;1911;53.768;11.474;2023-07-02T02:04:50;14.70;99.90
3792;DHT22;1911;53.768;11.474;2023-07-02T02:07:16;14.70;99.90
3792;DHT22;1911;53.768;11.474;2023-07-02T02:09:42;14.70;99.90
3792;DHT22;1911;53.768;11.474;2023-07-02T02:12:07;14.70;99.90
3792;DHT22;1911;53.768;11.474;2023-07-02T02:14:33;14.70;99.90
3792;DHT22;1911;53.768;11.474;2023-07-02T02:16:58;14.70;99.90
3792;DHT22;1911;53.768;11.474;2023-07-02T02:19:24;14.70;99.90
3792;DHT22;1911;53.768;11.474;2023-07-02T02:21:50;14.70;99.90
3792;DHT22;1911;53.768;11.474;2023-07-02T02:24:16;14.80;99.90
3792;DHT22;1911;53.768;11.474;2023-07-02T02:26:41;14.80;99.90
3792;DHT22;1911;53.768;11.474;2023-07-02T02:29:08;14.70;99.90
3792;DHT22;1911;53.768;11.474;2023-07-02T02:31:33;14.70;99.90
3792;DHT22;1911;53.768;11.474;2023-07-02T02:33:59;14.70;99.90
3792;DHT22;1911;53.768;11.474;2023-07-02T02:36:24;14.80;99.90
3792;DHT22;1911;53.768;11.474;2023-07-02T02:38:50;14.80;99.90
3792;DHT22;1911;53.768;11.474;2023-07-02T02:41:16;14.80;99.90
3792;DHT22;1911;53.768;11.474;2023-07-02T02:43:42;14.80;99.90
3792;DHT22;1911;53.768;11.474;2023-07-02T02:46:09;14.80;99.90
3792;DHT22;1911;53.768;11.474;2023-07-02T02:48:34;14.80;99.90
3792;DHT22;1911;53.768;11.474;2023-07-02T02:51:00;14.80;99.90
3792;DHT22;1911;53.768;11.474;2023-07-02T02:53:26;14.70;99.90
3792;DHT22;1911;53.768;11.474;2023-07-02T02:55:51;14.70;99.90
3792;DHT22;1911;53.768;11.474;2023-07-02T02:58:17;14.60;99.90
3792;DHT22;1911;53.768;11.474;2023-07-02T03:00:42;14.60;99.90
3792;DHT22;1911;53.768;11.474;2023-07-02T03:03:12;14.60;99.90
3792;DHT22;1911;53.768;11.474;2023-07-02T03:05:37;14.60;99.90
3792;DHT22;1911;53.768;11.474;2023-07-02T03:08:03;14.60;99.90
3792;DHT22;1911;53.768;11.474;2023-07-02T03:10:29;14.60;99.90
3792;DHT22;1911;53.768;11.474;2023-07-02T03:12:55;14.70;99.90
3792;DHT22;1911;53.768;11.474;2023-07-02T03:15:20;14.80;99.90
3792;DHT22;1911;53.768;11.474;2023-07-02T03:17:46;14.80;99.90
3792;DHT22;1911;53.768;11.474;2023-07-02T03:20:11;14.80;99.90
3792;DHT22;1911;53.768;11.474;2023-07-02T03:22:37;14.80;99.90
3792;DHT22;1911;53.768;11.474;2023-07-02T03:25:03;14.80;99.90
3792;DHT22;1911;53.768;11.474;2023-07-02T03:27:29;14.80;99.90
3792;DHT22;1911;53.768;11.474;2023-07-02T03:29:54;14.80;99.90
3792;DHT22;1911;53.768;11.474;2023-07-02T03:32:20;14.70;99.90
3792;DHT22;1911;53.768;11.474;2023-07-02T03:34:46;14.70;99.90
3792;DHT22;1911;53.768;11.474;2023-07-02T03:37:11;14.70;99.90
3792;DHT22;1911;53.768;11.474;2023-07-02T03:39:37;14.60;99.90
3792;DHT22;1911;53.768;11.474;2023-07-02T03:42:04;14.70;99.90
3792;DHT22;1911;53.768;11.474;2023-07-02T03:44:30;14.70;99.90
3792;DHT22;1911;53.768;11.474;2023-07-02T03:46:55;14.70;99.90
3792;DHT22;1911;53.768;11.474;2023-07-02T03:49:21;14.70;99.90
3792;DHT22;1911;53.768;11.474;2023-07-02T03:51:47;14.80;99.90
3792;DHT22;1911;53.768;11.474;2023-07-02T03:54:12;14.80;99.90
3792;DHT22;1911;53.768;11.474;2023-07-02T03:56:38;14.90;99.90
3792;DHT22;1911;53.768;11.474;2023-07-02T03:59:03;15.00;99.90
3792;DHT22;1911;53.768;11.474;2023-07-02T04:01:29;15.00;99.90
3792;DHT22;1911;53.768;11.474;2023-07-02T04:03:56;15.00;99.90
3792;DHT22;1911;53.768;11.474;2023-07-02T04:06:21;15.00;99.90
3792;DHT22;1911;53.768;11.474;2023-07-02T04:08:48;15.10;99.90
3792;DHT22;1911;53.768;11.474;2023-07-02T04:11:13;15.20;99.90
3792;DHT22;1911;53.768;11.474;2023-07-02T04:13:39;15.20;99.90
3792;DHT22;1911;53.768;11.474;2023-07-02T04:16:05;15.20;99.90
3792;DHT22;1911;53.768;11.474;2023-07-02T04:18:31;15.20;99.90
3792;DHT22;1911;53.768;11.474;2023-07-02T04:20:58;15.30;99.90
3792;DHT22;1911;53.768;11.474;2023-07-02T04:23:24;15.30;99.90
3792;DHT22;1911;53.768;11.474;2023-07-02T04:25:50;15.40;99.90
3792;DHT22;1911;53.768;11.474;2023-07-02T04:28:16;15.40;99.90
3792;DHT22;1911;53.768;11.474;2023-07-02T04:30:41;15.40;99.90
3792;DHT22;1911;53.768;11.474;2023-07-02T04:33:08;15.40;99.90
3792;DHT22;1911;53.768;11.474;2023-07-02T04:35:34;15.50;99.90
3792;DHT22;1911;53.768;11.474;2023-07-02T04:38:02;15.50;99.90
3792;DHT22;1911;53.768;11.474;2023-07-02T04:40:28;15.60;99.90
3792;DHT22;1911;53.768;11.474;2023-07-02T04:42:54;15.80;99.90
3792;DHT22;1911;53.768;11.474;2023-07-02T04:45:26;15.80;99.90
3792;DHT22;1911;53.768;11.474;2023-07-02T04:47:52;15.80;99.90
3792;DHT22;1911;53.768;11.474;2023-07-02T04:50:18;15.80;99.90
3792;DHT22;1911;53.768;11.474;2023-07-02T04:52:44;15.90;99.90
3792;DHT22;1911;53.768;11.474;2023-07-02T04:55:10;15.80;99.90
3792;DHT22;1911;53.768;11.474;2023-07-02T04:57:35;15.80;99.90
3792;DHT22;1911;53.768;11.474;2023-07-02T05:00:02;15.90;99.90
3792;DHT22;1911;53.768;11.474;2023-07-02T05:02:29;15.90;99.90
3792;DHT22;1911;53.768;11.474;2023-07-02T05:04:54;16.10;99.90
3792;DHT22;1911;53.768;11.474;2023-07-02T05:07:20;16.10;99.90
3792;DHT22;1911;53.768;11.474;2023-07-02T05:09:46;16.20;99.90
3792;DHT22;1911;53.768;11.474;2023-07-02T05:12:13;16.30;99.90
3792;DHT22;1911;53.768;11.474;2023-07-02T05:14:39;16.30;99.90
3792;DHT22;1911;53.768;11.474;2023-07-02T05:17:05;16.40;99.90
3792;DHT22;1911;53.768;11.474;2023-07-02T05:19:30;16.50;99.90
3792;DHT22;1911;53.768;11.474;2023-07-02T05:21:56;16.60;99.90
3792;DHT22;1911;53.768;11.474;2023-07-02T05:24:21;16.70;99.90
3792;DHT22;1911;53.768;11.474;2023-07-02T05:26:47;17.10;99.90
3792;DHT22;1911;53.768;11.474;2023-07-02T05:29:13;17.20;99.90
3792;DHT22;1911;53.768;11.474;2023-07-02T05:31:39;17.60;99.90
3792;DHT22;1911;53.768;11.474;2023-07-02T05:34:05;18.30;99.90
3792;DHT22;1911;53.768;11.474;2023-07-02T05:36:31;19.40;99.90
3792;DHT22;1911;53.768;11.474;2023-07-02T05:38:56;20.50;99.90
3792;DHT22;1911;53.768;11.474;2023-07-02T05:41:22;21.80;99.90
3792;DHT22;1911;53.768;11.474;2023-07-02T05:43:48;22.50;35.90
3792;DHT22;1911;53.768;11.474;2023-07-02T05:46:14;21.70;1.00
3792;DHT22;1911;53.768;11.474;2023-07-02T05:48:41;21.40;1.00
3792;DHT22;1911;53.768;11.474;2023-07-02T05:51:07;20.60;1.00
3792;DHT22;1911;53.768;11.474;2023-07-02T05:53:33;19.20;91.40
3792;DHT22;1911;53.768;11.474;2023-07-02T05:55:59;18.30;99.90
3792;DHT22;1911;53.768;11.474;2023-07-02T05:58:24;17.80;99.90
3792;DHT22;1911;53.768;11.474;2023-07-02T06:00:50;18.90;99.90
3792;DHT22;1911;53.768;11.474;2023-07-02T06:03:17;18.80;99.90
3792;DHT22;1911;53.768;11.474;2023-07-02T06:05:48;18.30;99.90
3792;DHT22;1911;53.768;11.474;2023-07-02T06:08:15;17.90;99.90
3792;DHT22;1911;53.768;11.474;2023-07-02T06:10:41;18.30;99.90
3792;DHT22;1911;53.768;11.474;2023-07-02T06:13:07;18.40;99.90
3792;DHT22;1911;53.768;11.474;2023-07-02T06:15:32;18.50;99.90
3792;DHT22;1911;53.768;11.474;2023-07-02T06:17:58;18.30;99.90
3792;DHT22;1911;53.768;11.474;2023-07-02T06:20:24;17.90;99.90
3792;DHT22;1911;53.768;11.474;2023-07-02T06:22:49;18.80;99.90
3792;DHT22;1911;53.768;11.474;2023-07-02T06:25:15;20.70;99.90
3792;DHT22;1911;53.768;11.474;2023-07-02T06:27:40;21.90;26.20
3792;DHT22;1911;53.768;11.474;2023-07-02T06:30:07;22.80;1.00
3792;DHT22;1911;53.768;11.474;2023-07-02T06:32:32;23.80;1.00
3792;DHT22;1911;53.768;11.474;2023-07-02T06:34:58;24.60;1.00
3792;DHT22;1911;53.768;11.474;2023-07-02T06:37:23;25.20;1.00
3792;DHT22;1911;53.768;11.474;2023-07-02T06:39:56;25.60;1.00
3792;DHT22;1911;53.768;11.474;2023-07-02T06:42:22;25.40;99.90
3792;DHT22;1911;53.768;11.474;2023-07-02T06:44:47;23.70;99.90
3792;DHT22;1911;53.768;11.474;2023-07-02T06:47:13;24.20;1.00
3792;DHT22;1911;53.768;11.474;2023-07-02T06:49:39;24.30;99.90
3792;DHT22;1911;53.768;11.474;2023-07-02T06:52:04;24.10;99.90
3792;DHT22;1911;53.768;11.474;2023-07-02T06:54:30;24.20;99.90
3792;DHT22;1911;53.768;11.474;2023-07-02T06:56:56;23.00;99.90
3792;DHT22;1911;53.768;11.474;2023-07-02T06:59:22;22.30;99.90
3792;DHT22;1911;53.768;11.474;2023-07-02T07:01:49;21.20;99.90
3792;DHT22;1911;53.768;11.474;2023-07-02T07:04:15;21.20;1.00
3792;DHT22;1911;53.768;11.474;2023-07-02T07:06:41;21.80;99.90
3792;DHT22;1911;53.768;11.474;2023-07-02T07:09:07;22.60;99.90
3792;DHT22;1911;53.768;11.474;2023-07-02T07:11:32;22.70;99.90
3792;DHT22;1911;53.768;11.474;2023-07-02T07:13:58;23.60;99.90
3792;DHT22;1911;53.768;11.474;2023-07-02T07:16:23;24.80;99.90
3792;DHT22;1911;53.768;11.474;2023-07-02T07:18:49;24.60;99.90
3792;DHT22;1911;53.768;11.474;2023-07-02T07:21:15;25.40;99.90
3792;DHT22;1911;53.768;11.474;2023-07-02T07:23:40;25.50;99.90
3792;DHT22;1911;53.768;11.474;2023-07-02T07:26:06;25.40;99.90
3792;DHT22;1911;53.768;11.474;2023-07-02T07:28:32;25.00;70.90
3792;DHT22;1911;53.768;11.474;2023-07-02T07:30:57;25.30;78.60
3792;DHT22;1911;53.768;11.474;2023-07-02T07:33:23;25.40;38.90
3792;DHT22;1911;53.768;11.474;2023-07-02T07:35:49;25.80;88.50
3792;DHT22;1911;53.768;11.474;2023-07-02T07:38:15;26.30;1.00
3792;DHT22;1911;53.768;11.474;2023-07-02T07:40:42;26.20;1.00
3792;DHT22;1911;53.768;11.474;2023-07-02T07:43:08;26.10;1.00
3792;DHT22;1911;53.768;11.474;2023-07-02T07:45:34;26.50;1.00
3792;DHT22;1911;53.768;11.474;2023-07-02T07:48:00;26.00;1.00
3792;DHT22;1911;53.768;11.474;2023-07-02T07:50:26;25.30;1.00
3792;DHT22;1911;53.768;11.474;2023-07-02T07:52:51;25.00;1.00
3792;DHT22;1911;53.768;11.474;2023-07-02T07:55:17;25.10;1.00
3792;DHT22;1911;53.768;11.474;2023-07-02T07:57:42;25.00;1.00
3792;DHT22;1911;53.768;11.474;2023-07-02T08:00:09;24.20;1.00
3792;DHT22;1911;53.768;11.474;2023-07-02T08:02:37;23.10;1.00
3792;DHT22;1911;53.768;11.474;2023-07-02T08:05:04;22.40;1.00
3792;DHT22;1911;53.768;11.474;2023-07-02T08:07:31;22.90;1.00
3792;DHT22;1911;53.768;11.474;2023-07-02T08:09:57;23.80;1.00
3792;DHT22;1911;53.768;11.474;2023-07-02T08:12:22;24.20;1.00
3792;DHT22;1911;53.768;11.474;2023-07-02T08:14:49;23.20;1.00
3792;DHT22;1911;53.768;11.474;2023-07-02T08:17:14;22.00;1.00
3792;DHT22;1911;53.768;11.474;2023-07-02T08:19:40;20.90;1.00
3792;DHT22;1911;53.768;11.474;2023-07-02T08:22:05;20.70;1.00
3792;DHT22;1911;53.768;11.474;2023-07-02T08:24:31;20.30;1.00
3792;DHT22;1911;53.768;11.474;2023-07-02T08:26:57;20.60;1.00
3792;DHT22;1911;53.768;11.474;2023-07-02T08:29:23;20.70;1.00
3792;DHT22;1911;53.768;11.474;2023-07-02T08:31:49;20.70;1.00
3792;DHT22;1911;53.768;11.474;2023-07-02T08:34:14;20.50;1.00
3792;DHT22;1911;53.768;11.474;2023-07-02T08:36:40;20.10;1.00
3792;DHT22;1911;53.768;11.474;2023-07-02T08:39:05;20.10;1.00
3792;DHT22;1911;53.768;11.474;2023-07-02T08:41:42;20.10;1.00
3792;DHT22;1911;53.768;11.474;2023-07-02T08:44:09;20.20;1.00
3792;DHT22;1911;53.768;11.474;2023-07-02T08:46:34;19.90;1.00
3792;DHT22;1911;53.768;11.474;2023-07-02T08:49:00;19.30;1.00
3792;DHT22;1911;53.768;11.474;2023-07-02T08:51:26;18.80;1.00
3792;DHT22;1911;53.768;11.474;2023-07-02T08:53:51;18.60;1.00
3792;DHT22;1911;53.768;11.474;2023-07-02T08:56:17;18.20;1.00
3792;DHT22;1911;53.768;11.474;2023-07-02T08:58:42;17.90;99.90
3792;DHT22;1911;53.768;11.474;2023-07-02T09:01:10;17.80;99.90
3792;DHT22;1911;53.768;11.474;2023-07-02T09:03:36;17.90;99.90
3792;DHT22;1911;53.768;11.474;2023-07-02T09:06:03;18.00;99.90
3792;DHT22;1911;53.768;11.474;2023-07-02T09:08:29;18.30;99.90
3792;DHT22;1911;53.768;11.474;2023-07-02T09:11:05;18.90;99.90
3792;DHT22;1911;53.768;11.474;2023-07-02T09:13:31;19.40;99.90
3792;DHT22;1911;53.768;11.474;2023-07-02T09:15:56;19.80;77.60
3792;DHT22;1911;53.768;11.474;2023-07-02T09:18:22;19.70;1.00
3792;DHT22;1911;53.768;11.474;2023-07-02T09:20:52;20.20;47.80
3792;DHT22;1911;53.768;11.474;2023-07-02T09:23:20;20.60;1.00
3792;DHT22;1911;53.768;11.474;2023-07-02T09:25:45;20.60;1.00
3792;DHT22;1911;53.768;11.474;2023-07-02T09:33:19;21.40;1.00
3792;DHT22;1911;53.768;11.474;2023-07-02T09:35:45;21.40;1.00
3792;DHT22;1911;53.768;11.474;2023-07-02T09:38:12;21.60;36.30
3792;DHT22;1911;53.768;11.474;2023-07-02T09:40:46;21.90;1.00
3792;DHT22;1911;53.768;11.474;2023-07-02T09:43:16;22.00;11.10
3792;DHT22;1911;53.768;11.474;2023-07-02T09:45:46;22.10;47.90
3792;DHT22;1911;53.768;11.474;2023-07-02T09:48:16;21.80;1.00
3792;DHT22;1911;53.768;11.474;2023-07-02T09:50:47;21.90;1.00
3792;DHT22;1911;53.768;11.474;2023-07-02T09:53:14;21.50;1.00
3792;DHT22;1911;53.768;11.474;2023-07-02T09:55:42;20.80;1.00
3792;DHT22;1911;53.768;11.474;2023-07-02T09:58:08;20.30;1.00
3792;DHT22;1911;53.768;11.474;2023-07-02T10:00:34;19.70;1.00
3792;DHT22;1911;53.768;11.474;2023-07-02T10:03:00;19.30;1.00
3792;DHT22;1911;53.768;11.474;2023-07-02T10:05:30;19.60;1.00
3792;DHT22;1911;53.768;11.474;2023-07-02T10:07:56;19.90;1.00
3792;DHT22;1911;53.768;11.474;2023-07-02T10:10:29;20.30;1.00
3792;DHT22;1911;53.768;11.474;2023-07-02T10:12:56;20.80;1.00
3792;DHT22;1911;53.768;11.474;2023-07-02T10:15:29;21.10;1.00
3792;DHT22;1911;53.768;11.474;2023-07-02T10:17:56;21.20;1.00
3792;DHT22;1911;53.768;11.474;2023-07-02T10:20:35;20.80;1.00
3792;DHT22;1911;53.768;11.474;2023-07-02T10:23:01;20.50;1.00
3792;DHT22;1911;53.768;11.474;2023-07-02T10:25:37;20.40;1.00
3792;DHT22;1911;53.768;11.474;2023-07-02T10:28:19;20.40;1.00
3792;DHT22;1911;53.768;11.474;2023-07-02T10:30:46;20.30;1.00
3792;DHT22;1911;53.768;11.474;2023-07-02T10:33:13;20.40;1.00
3792;DHT22;1911;53.768;11.474;2023-07-02T10:35:41;20.70;1.00
3792;DHT22;1911;53.768;11.474;2023-07-02T10:38:12;20.80;1.00
3792;DHT22;1911;53.768;11.474;2023-07-02T10:40:39;20.70;1.00
3792;DHT22;1911;53.768;11.474;2023-07-02T10:43:05;20.30;1.00
3792;DHT22;1911;53.768;11.474;2023-07-02T10:45:32;19.40;1.00
3792;DHT22;1911;53.768;11.474;2023-07-02T10:47:58;18.60;1.00
3792;DHT22;1911;53.768;11.474;2023-07-02T10:50:23;18.10;99.90
3792;DHT22;1911;53.768;11.474;2023-07-02T10:52:49;17.70;99.90
3792;DHT22;1911;53.768;11.474;2023-07-02T10:55:22;18.00;1.00
3792;DHT22;1911;53.768;11.474;2023-07-02T10:57:48;18.50;1.00
3792;DHT22;1911;53.768;11.474;2023-07-02T11:00:16;18.80;99.90
3792;DHT22;1911;53.768;11.474;2023-07-02T11:02:42;19.00;99.90
3792;DHT22;1911;53.768;11.474;2023-07-02T11:05:09;19.40;99.90
3792;DHT22;1911;53.768;11.474;2023-07-02T11:07:42;19.70;99.90
3792;DHT22;1911;53.768;11.474;2023-07-02T11:10:08;19.80;90.10
3792;DHT22;1911;53.768;11.474;2023-07-02T11:12:34;20.10;1.00
3792;DHT22;1911;53.768;11.474;2023-07-02T11:15:15;20.20;1.00
3792;DHT22;1911;53.768;11.474;2023-07-02T11:17:41;20.10;1.00
3792;DHT22;1911;53.768;11.474;2023-07-02T11:20:08;20.10;1.00
3792;DHT22;1911;53.768;11.474;2023-07-02T11:22:35;19.90;1.00
3792;DHT22;1911;53.768;11.474;2023-07-02T11:27:36;20.10;1.00
3792;DHT22;1911;53.768;11.474;2023-07-02T11:30:01;20.10;1.00
3792;DHT22;1911;53.768;11.474;2023-07-02T11:32:27;20.10;1.00
3792;DHT22;1911;53.768;11.474;2023-07-02T11:34:54;19.90;1.00
3792;DHT22;1911;53.768;11.474;2023-07-02T11:37:19;20.00;1.00
3792;DHT22;1911;53.768;11.474;2023-07-02T11:39:45;20.20;1.00
3792;DHT22;1911;53.768;11.474;2023-07-02T11:42:11;20.50;1.00
3792;DHT22;1911;53.768;11.474;2023-07-02T11:44:36;20.40;1.00
3792;DHT22;1911;53.768;11.474;2023-07-02T11:47:02;20.60;1.00
3792;DHT22;1911;53.768;11.474;2023-07-02T11:49:28;20.90;1.00
3792;DHT22;1911;53.768;11.474;2023-07-02T11:51:53;20.70;1.00
3792;DHT22;1911;53.768;11.474;2023-07-02T11:54:20;20.50;1.00
3792;DHT22;1911;53.768;11.474;2023-07-02T11:56:46;20.70;1.00
3792;DHT22;1911;53.768;11.474;2023-07-02T11:59:12;20.80;1.00
3792;DHT22;1911;53.768;11.474;2023-07-02T12:01:37;20.70;1.00
3792;DHT22;1911;53.768;11.474;2023-07-02T12:04:03;20.70;1.00
3792;DHT22;1911;53.768;11.474;2023-07-02T12:06:29;20.80;1.00
3792;DHT22;1911;53.768;11.474;2023-07-02T12:08:54;21.10;1.00
3792;DHT22;1911;53.768;11.474;2023-07-02T12:11:20;21.50;1.00
3792;DHT22;1911;53.768;11.474;2023-07-02T12:13:45;21.20;1.00
3792;DHT22;1911;53.768;11.474;2023-07-02T12:16:11;21.20;1.00
3792;DHT22;1911;53.768;11.474;2023-07-02T12:18:36;21.10;1.00
3792;DHT22;1911;53.768;11.474;2023-07-02T12:21:02;21.30;1.00
3792;DHT22;1911;53.768;11.474;2023-07-02T12:23:28;21.40;1.00
3792;DHT22;1911;53.768;11.474;2023-07-02T12:25:53;21.40;1.00
3792;DHT22;1911;53.768;11.474;2023-07-02T12:28:19;21.30;1.00
3792;DHT22;1911;53.768;11.474;2023-07-02T12:30:45;21.20;1.00
3792;DHT22;1911;53.768;11.474;2023-07-02T12:33:10;21.00;1.00
3792;DHT22;1911;53.768;11.474;2023-07-02T12:35:36;21.00;1.00
3792;DHT22;1911;53.768;11.474;2023-07-02T12:38:01;21.10;1.00
3792;DHT22;1911;53.768;11.474;2023-07-02T12:40:29;21.20;1.00
3792;DHT22;1911;53.768;11.474;2023-07-02T12:42:54;20.60;1.00
3792;DHT22;1911;53.768;11.474;2023-07-02T12:45:20;20.10;1.00
3792;DHT22;1911;53.768;11.474;2023-07-02T12:47:45;19.60;1.00
3792;DHT22;1911;53.768;11.474;2023-07-02T12:50:11;19.40;1.00
3792;DHT22;1911;53.768;11.474;2023-07-02T12:52:37;19.40;1.00
3792;DHT22;1911;53.768;11.474;2023-07-02T12:55:04;19.30;1.00
3792;DHT22;1911;53.768;11.474;2023-07-02T12:57:30;19.40;1.00
3792;DHT22;1911;53.768;11.474;2023-07-02T12:59:56;19.70;1.00
3792;DHT22;1911;53.768;11.474;2023-07-02T13:02:24;19.70;1.00
3792;DHT22;1911;53.768;11.474;2023-07-02T13:04:50;19.70;1.00
3792;DHT22;1911;53.768;11.474;2023-07-02T13:07:16;19.80;1.00
3792;DHT22;1911;53.768;11.474;2023-07-02T13:09:42;20.10;1.00
3792;DHT22;1911;53.768;11.474;2023-07-02T13:12:08;20.30;1.00
3792;DHT22;1911;53.768;11.474;2023-07-02T13:14:34;20.50;1.00
3792;DHT22;1911;53.768;11.474;2023-07-02T13:16:59;20.70;1.00
3792;DHT22;1911;53.768;11.474;2023-07-02T13:19:25;20.30;1.00
3792;DHT22;1911;53.768;11.474;2023-07-02T13:21:51;20.10;1.00
3792;DHT22;1911;53.768;11.474;2023-07-02T13:24:16;20.00;1.00
3792;DHT22;1911;53.768;11.474;2023-07-02T13:26:42;19.80;1.00
3792;DHT22;1911;53.768;11.474;2023-07-02T13:29:08;19.80;1.00
3792;DHT22;1911;53.768;11.474;2023-07-02T13:31:33;19.60;1.00
3792;DHT22;1911;53.768;11.474;2023-07-02T13:33:59;19.30;1.00
3792;DHT22;1911;53.768;11.474;2023-07-02T13:36:24;19.10;1.00
3792;DHT22;1911;53.768;11.474;2023-07-02T13:38:50;19.20;1.00
3792;DHT22;1911;53.768;11.474;2023-07-02T13:41:16;19.40;1.00
3792;DHT22;1911;53.768;11.474;2023-07-02T13:43:41;19.60;1.00
3792;DHT22;1911;53.768;11.474;2023-07-02T13:46:07;19.60;1.00
3792;DHT22;1911;53.768;11.474;2023-07-02T13:48:32;19.70;1.00
3792;DHT22;1911;53.768;11.474;2023-07-02T13:50:58;19.90;1.00
3792;DHT22;1911;53.768;11.474;2023-07-02T13:53:23;20.10;1.00
3792;DHT22;1911;53.768;11.474;2023-07-02T13:55:49;20.00;1.00
3792;DHT22;1911;53.768;11.474;2023-07-02T13:58:14;20.00;1.00
3792;DHT22;1911;53.768;11.474;2023-07-02T14:00:40;20.00;1.00
3792;DHT22;1911;53.768;11.474;2023-07-02T14:03:06;20.10;1.00
3792;DHT22;1911;53.768;11.474;2023-07-02T14:05:32;20.00;1.00
3792;DHT22;1911;53.768;11.474;2023-07-02T14:07:58;20.10;1.00
3792;DHT22;1911;53.768;11.474;2023-07-02T14:10:23;20.10;1.00
3792;DHT22;1911;53.768;11.474;2023-07-02T14:12:49;20.10;1.00
3792;DHT22;1911;53.768;11.474;2023-07-02T14:15:15;20.30;1.00
3792;DHT22;1911;53.768;11.474;2023-07-02T14:17:40;20.30;1.00
3792;DHT22;1911;53.768;11.474;2023-07-02T14:20:08;20.30;1.00
3792;DHT22;1911;53.768;11.474;2023-07-02T14:22:34;20.20;1.00
3792;DHT22;1911;53.768;11.474;2023-07-02T14:24:59;20.00;1.00
3792;DHT22;1911;53.768;11.474;2023-07-02T14:27:25;19.90;1.00
3792;DHT22;1911;53.768;11.474;2023-07-02T14:29:50;20.00;1.00
3792;DHT22;1911;53.768;11.474;2023-07-02T14:32:16;20.10;1.00
3792;DHT22;1911;53.768;11.474;2023-07-02T14:34:42;20.40;1.00
3792;DHT22;1911;53.768;11.474;2023-07-02T14:37:08;20.50;1.00
3792;DHT22;1911;53.768;11.474;2023-07-02T14:39:34;20.40;1.00
3792;DHT22;1911;53.768;11.474;2023-07-02T14:41:59;20.20;1.00
3792;DHT22;1911;53.768;11.474;2023-07-02T14:44:25;20.00;1.00
3792;DHT22;1911;53.768;11.474;2023-07-02T14:46:51;20.10;1.00
3792;DHT22;1911;53.768;11.474;2023-07-02T14:49:16;20.30;1.00
3792;DHT22;1911;53.768;11.474;2023-07-02T14:51:42;20.30;1.00
3792;DHT22;1911;53.768;11.474;2023-07-02T14:54:08;20.30;1.00
3792;DHT22;1911;53.768;11.474;2023-07-02T14:56:34;20.40;1.00
3792;DHT22;1911;53.768;11.474;2023-07-02T14:59:03;20.40;1.00
3792;DHT22;1911;53.768;11.474;2023-07-02T15:01:29;20.40;1.00
3792;DHT22;1911;53.768;11.474;2023-07-02T15:03:55;20.50;1.00
3792;DHT22;1911;53.768;11.474;2023-07-02T15:06:21;20.50;1.00
3792;DHT22;1911;53.768;11.474;2023-07-02T15:08:47;20.50;1.00
3792;DHT22;1911;53.768;11.474;2023-07-02T15:11:14;20.60;1.00
3792;DHT22;1911;53.768;11.474;2023-07-02T15:13:40;20.40;1.00
3792;DHT22;1911;53.768;11.474;2023-07-02T15:16:07;20.50;1.00
3792;DHT22;1911;53.768;11.474;2023-07-02T15:18:33;20.40;1.00
3792;DHT22;1911;53.768;11.474;2023-07-02T15:20:59;20.40;99.90
3792;DHT22;1911;53.768;11.474;2023-07-02T15:23:26;20.40;1.00
3792;DHT22;1911;53.768;11.474;2023-07-02T15:25:53;20.60;1.00
3792;DHT22;1911;53.768;11.474;2023-07-02T15:28:19;20.80;1.00
3792;DHT22;1911;53.768;11.474;2023-07-02T15:30:47;20.70;1.00
3792;DHT22;1911;53.768;11.474;2023-07-02T15:33:13;20.70;1.00
3792;DHT22;1911;53.768;11.474;2023-07-02T15:35:39;20.50;1.00
3792;DHT22;1911;53.768;11.474;2023-07-02T15:38:04;20.50;1.00
3792;DHT22;1911;53.768;11.474;2023-07-02T15:40:31;20.60;1.00
3792;DHT22;1911;53.768;11.474;2023-07-02T15:42:56;20.50;99.90
3792;DHT22;1911;53.768;11.474;2023-07-02T15:45:22;20.60;1.00
3792;DHT22;1911;53.768;11.474;2023-07-02T15:47:47;20.50;1.00
3792;DHT22;1911;53.768;11.474;2023-07-02T15:50:13;20.30;99.90
3792;DHT22;1911;53.768;11.474;2023-07-02T15:52:39;20.20;99.90
3792;DHT22;1911;53.768;11.474;2023-07-02T15:55:05;20.20;99.90